createdAt,value
2019-05-22T00:03:32.692Z,77.20
2019-05-22T00:08:34.006Z,75.83
2019-05-22T00:13:35.323Z,78.03
2019-05-22T00:18:40.430Z,77.55
2019-05-22T00:23:58.061Z,78.10
2019-05-22T00:28:59.502Z,79.03
2019-05-22T00:34:00.804Z,76.02
2019-05-22T00:39:02.132Z,75.86
2019-05-22T00:44:03.485Z,78.05
2019-05-22T00:49:21.386Z,77.20
2019-05-22T00:54:22.717Z,76.32
2019-05-22T00:59:24.036Z,76.87
2019-05-22T01:04:32.211Z,76.93
2019-05-22T01:09:35.544Z,75.45
2019-05-22T01:14:42.968Z,76.63
2019-05-22T01:19:38.998Z,76.33
2019-05-22T01:24:40.354Z,78.34
2019-05-22T01:30:21.328Z,77.66
2019-05-22T01:36:04.437Z,76.05
2019-05-22T01:41:44.864Z,78.10
2019-05-22T01:47:25.911Z,76.04
2019-05-22T01:53:06.957Z,76.08
2019-05-22T01:58:47.358Z,76.96
2019-05-22T02:03:48.683Z,76.36
2019-05-22T02:08:53.001Z,75.78
2019-05-22T02:13:54.350Z,77.48
2019-05-22T02:18:55.636Z,76.41
2019-05-22T02:23:57.003Z,76.13
2019-05-22T02:28:58.326Z,77.11
2019-05-22T02:34:01.390Z,75.82
2019-05-22T02:39:02.726Z,77.02
2019-05-22T02:44:04.046Z,77.72
2019-05-22T02:49:06.101Z,77.79
2019-05-22T02:54:07.417Z,77.13
2019-05-22T02:59:08.735Z,78.67
2019-05-22T03:04:10.052Z,78.42
2019-05-22T03:09:12.368Z,78.24
2019-05-22T03:14:13.753Z,78.49
2019-05-22T03:19:15.087Z,77.28
2019-05-22T03:24:16.398Z,78.24
2019-05-22T03:29:18.469Z,78.67
2019-05-22T03:34:19.822Z,77.93
2019-05-22T03:39:21.576Z,77.70
2019-05-22T03:44:22.873Z,77.74
2019-05-22T03:49:30.379Z,79.50
2019-05-22T03:54:25.683Z,80.08
2019-05-22T03:59:27.139Z,79.57
2019-05-22T04:04:30.423Z,80.81
2019-05-22T04:09:31.742Z,80.02
2019-05-22T04:14:33.076Z,79.09
2019-05-22T04:19:48.576Z,79.08
2019-05-22T04:24:35.763Z,79.85
2019-05-22T04:29:37.062Z,80.01
2019-05-22T04:34:38.401Z,79.98
2019-05-22T04:39:39.722Z,79.78
2019-05-22T04:44:41.037Z,79.71
2019-05-22T04:49:42.357Z,77.86
2019-05-22T04:54:44.385Z,77.79
2019-05-22T04:59:45.724Z,76.26
2019-05-22T05:04:47.168Z,75.87
2019-05-22T05:09:49.412Z,76.78
2019-05-22T05:14:50.748Z,76.69
2019-05-22T05:19:52.129Z,77.44
2019-05-22T05:24:55.668Z,78.44
2019-05-22T05:29:54.710Z,77.41
2019-05-22T05:34:56.766Z,78.93
2019-05-22T05:45:35.211Z,79.29
2019-05-22T05:50:40.007Z,80.07
2019-05-22T05:55:47.709Z,78.33
2019-05-22T06:00:51.693Z,79.49
2019-05-22T06:05:53.058Z,78.37
2019-05-22T06:11:27.258Z,77.65
2019-05-22T06:22:13.373Z,78.87
2019-05-22T06:27:17.946Z,78.27
2019-05-22T06:38:11.242Z,78.20
2019-05-22T06:54:46.649Z,79.60
2019-05-22T06:59:48.011Z,78.08
2019-05-22T07:04:49.341Z,78.31
2019-05-22T07:09:50.749Z,76.16
2019-05-22T07:20:41.645Z,77.35
2019-05-22T07:25:42.976Z,76.66
2019-05-22T07:30:44.281Z,77.06
2019-05-22T07:36:07.137Z,77.37
2019-05-22T07:40:50.217Z,78.61
2019-05-22T07:45:48.349Z,77.36
2019-05-22T07:50:50.444Z,76.74
2019-05-22T07:55:52.725Z,76.83
2019-05-22T08:00:54.954Z,76.69
2019-05-22T08:05:56.329Z,77.30
2019-05-22T08:10:58.364Z,76.74
2019-05-22T08:15:59.726Z,76.56
2019-05-22T08:21:01.121Z,74.18
2019-05-22T08:26:02.456Z,75.64
2019-05-22T08:31:03.799Z,76.65
2019-05-22T08:36:05.864Z,73.46
2019-05-22T08:41:07.208Z,73.83
2019-05-22T08:46:08.553Z,76.28
2019-05-22T08:51:09.854Z,75.13
2019-05-22T08:56:11.184Z,74.87
2019-05-22T09:01:12.502Z,75.76
2019-05-22T09:06:13.988Z,73.75
2019-05-22T09:11:15.210Z,73.59
2019-05-22T09:16:16.558Z,73.98
2019-05-22T09:21:17.864Z,71.85
2019-05-22T09:26:19.157Z,71.91
2019-05-22T09:31:20.507Z,72.91
2019-05-22T09:36:21.837Z,71.90
2019-05-22T09:41:23.153Z,71.92
2019-05-22T09:46:24.461Z,74.11
2019-05-22T09:51:25.790Z,74.03
2019-05-22T09:56:27.136Z,72.69
2019-05-22T10:01:28.445Z,71.46
2019-05-22T10:06:29.789Z,69.74
2019-05-22T10:11:31.285Z,68.79
2019-05-22T10:16:33.347Z,67.97
2019-05-22T10:21:34.744Z,68.40
2019-05-22T10:26:36.176Z,67.49
2019-05-22T10:31:37.497Z,66.64
2019-05-22T10:36:38.821Z,69.39
2019-05-22T10:41:40.946Z,68.10
2019-05-22T10:46:42.380Z,68.22
2019-05-22T10:51:44.449Z,67.28
2019-05-22T10:56:45.828Z,66.92
2019-05-22T11:01:47.140Z,68.02
2019-05-22T11:06:48.498Z,67.19
2019-05-22T11:11:49.865Z,67.64
2019-05-22T11:16:55.129Z,67.96
2019-05-22T11:21:57.193Z,68.50
2019-05-22T11:26:58.627Z,67.84
2019-05-22T11:31:59.999Z,65.43
2019-05-22T11:37:01.335Z,65.93
2019-05-22T11:42:03.415Z,64.94
2019-05-22T11:47:04.777Z,65.21
2019-05-22T11:52:06.137Z,65.67
2019-05-22T11:57:07.480Z,66.87
2019-05-22T12:02:09.589Z,66.80
2019-05-22T12:07:10.947Z,66.97
2019-05-22T12:12:12.382Z,65.52
2019-05-22T12:17:13.713Z,65.84
2019-05-22T12:22:15.122Z,65.62
2019-05-22T12:27:16.564Z,66.02
2019-05-22T12:32:17.882Z,65.35
2019-05-22T12:37:19.269Z,65.69
2019-05-22T12:42:21.397Z,66.06
2019-05-22T12:47:22.776Z,64.40
2019-05-22T12:52:24.186Z,63.00
2019-05-22T12:57:32.965Z,61.86
2019-05-22T13:02:34.291Z,62.19
2019-05-22T13:07:35.608Z,62.59
2019-05-22T13:12:37.034Z,62.25
2019-05-22T13:17:38.403Z,61.32
2019-05-22T13:22:40.610Z,62.50
2019-05-22T13:27:42.056Z,62.00
2019-05-22T13:32:43.408Z,62.42
2019-05-22T13:37:44.787Z,61.66
2019-05-22T13:42:46.109Z,61.09
2019-05-22T13:47:47.501Z,59.95
2019-05-22T13:52:48.886Z,61.36
2019-05-22T13:57:50.276Z,61.71
2019-05-22T14:02:51.657Z,62.52
2019-05-22T14:07:53.705Z,60.69
2019-05-22T14:12:55.077Z,61.11
2019-05-22T14:17:56.482Z,60.30
2019-05-22T14:22:57.812Z,60.83
2019-05-22T14:27:59.172Z,60.81
2019-05-22T14:33:04.150Z,59.13
2019-05-22T14:38:01.877Z,58.86
2019-05-22T14:43:03.303Z,59.24
2019-05-22T14:48:05.382Z,58.74
2019-05-22T14:53:07.501Z,59.22
2019-05-22T14:58:08.884Z,60.21
2019-05-22T15:03:10.247Z,58.63
2019-05-22T15:08:11.679Z,57.09
2019-05-22T15:13:13.784Z,60.10
2019-05-22T15:18:15.155Z,60.69
2019-05-22T15:23:16.694Z,60.70
2019-05-22T15:28:18.088Z,58.93
2019-05-22T15:33:19.475Z,59.25
2019-05-22T15:38:20.788Z,59.75
2019-05-22T15:43:22.311Z,59.18
2019-05-22T15:48:27.440Z,60.54
2019-05-22T15:53:28.770Z,60.73
2019-05-22T15:58:30.090Z,59.10
2019-05-22T16:03:31.521Z,59.04
2019-05-22T16:08:32.861Z,60.42
2019-05-22T16:13:34.219Z,60.70
2019-05-22T16:18:35.561Z,60.73
2019-05-22T16:23:37.032Z,58.81
2019-05-22T16:28:40.697Z,59.18
2019-05-22T16:33:42.129Z,60.18
2019-05-22T16:38:44.205Z,59.88
2019-05-22T16:43:49.792Z,60.39
2019-05-22T16:48:47.765Z,59.60
2019-05-22T16:53:49.134Z,57.98
2019-05-22T16:58:50.478Z,56.82
2019-05-22T17:03:51.813Z,57.34
2019-05-22T17:08:53.158Z,57.54
2019-05-22T17:13:54.578Z,58.19
2019-05-22T17:18:55.943Z,60.91
2019-05-22T17:23:57.325Z,60.45
2019-05-22T17:28:58.685Z,59.42
2019-05-22T17:34:00.048Z,59.44
2019-05-22T17:39:01.492Z,59.65
2019-05-22T17:44:03.727Z,59.71
2019-05-22T17:49:05.074Z,58.79
2019-05-22T17:54:06.457Z,58.79
2019-05-22T17:59:07.817Z,57.82
2019-05-22T18:04:09.128Z,57.33
2019-05-22T18:09:10.768Z,58.01
2019-05-22T18:14:12.890Z,57.18
2019-05-22T18:19:14.971Z,55.90
2019-05-22T18:24:17.094Z,54.47
2019-05-22T18:29:18.446Z,55.62
2019-05-22T18:34:19.805Z,53.56
2019-05-22T18:39:21.100Z,54.51
2019-05-22T18:44:22.497Z,54.25
2019-05-22T18:49:23.873Z,55.59
2019-05-22T18:54:33.045Z,56.64
2019-05-22T18:59:34.395Z,56.34
2019-05-22T19:04:36.707Z,56.58
2019-05-22T19:09:40.185Z,56.39
2019-05-22T19:14:42.813Z,56.60
2019-05-22T19:19:45.583Z,55.93
2019-05-22T19:24:47.696Z,55.59
2019-05-22T19:29:49.044Z,55.59
2019-05-22T19:34:50.463Z,55.63
2019-05-22T19:39:54.748Z,55.75
2019-05-22T19:44:56.152Z,55.75
2019-05-22T19:49:57.567Z,56.04
2019-05-22T19:54:58.925Z,55.89
2019-05-22T20:00:00.278Z,56.16
2019-05-22T20:05:02.356Z,56.65
2019-05-22T20:10:04.431Z,56.66
2019-05-22T20:15:06.560Z,56.82
2019-05-22T20:20:07.909Z,56.94
2019-05-22T20:25:09.995Z,57.10
2019-05-22T20:30:11.367Z,57.14
2019-05-22T20:35:12.768Z,57.22
2019-05-22T20:40:14.139Z,57.41
2019-05-22T20:45:15.482Z,57.66
2019-05-22T20:50:18.374Z,58.10
2019-05-22T20:55:20.847Z,58.39
2019-05-22T21:00:23.752Z,58.55
2019-05-22T21:05:26.390Z,58.71
2019-05-22T21:10:29.445Z,58.96
2019-05-22T21:15:34.471Z,59.38
2019-05-22T21:20:36.490Z,59.54
2019-05-22T21:25:38.771Z,59.49
2019-05-22T21:30:41.736Z,59.54
2019-05-22T21:35:43.873Z,59.65
2019-05-22T21:40:45.236Z,59.56
2019-05-22T21:45:46.573Z,59.92
2019-05-22T21:50:47.927Z,59.88
2019-05-22T21:56:03.617Z,60.33
2019-05-22T22:06:20.698Z,61.46
2019-05-22T22:11:22.069Z,61.27
2019-05-22T22:16:23.355Z,61.01
2019-05-22T22:21:24.717Z,60.96
2019-05-22T22:26:26.693Z,60.82
2019-05-22T22:31:27.448Z,60.72
2019-05-22T22:36:28.818Z,60.92
2019-05-22T22:41:30.209Z,61.41
2019-05-22T22:46:33.430Z,62.17
2019-05-22T22:51:35.711Z,62.05
2019-05-22T22:56:37.101Z,61.75
2019-05-22T23:01:39.218Z,61.64
2019-05-22T23:06:40.555Z,61.71
2019-05-22T23:11:42.022Z,61.77
2019-05-22T23:16:43.346Z,61.90
2019-05-22T23:21:45.290Z,61.91
2019-05-22T23:26:47.189Z,61.93
2019-05-22T23:31:48.585Z,62.01
2019-05-22T23:36:50.037Z,62.19
2019-05-22T23:41:51.641Z,62.27
2019-05-22T23:47:01.310Z,62.17
2019-05-22T23:52:02.699Z,61.94
2019-05-22T23:57:04.069Z,61.83
